KBQK

Details ICAO KBQK (BQK)
Name BRUNSWICK GOLDEN ISLES
Region United States
Timezone America/New_York (UTC-5.0)
Plans Departing 12
Arriving 24
Stats Elevation 26 ft / 8 m (AMSL)
Location 31.258808° -81.466494°
Runways 1
Magnetic Variation 6.723° W
Sunrise 2017-12-13 12:17:27 UTC / 2017-12-13 07:17:27 Local
Sunset 2017-12-13 22:25:44 UTC / 2017-12-13 17:25:44 Local
Advertisement - Login to hide

Runways

ID Width Length Bearing (true) Bearing (mag) Surface Threshold Offset Overrun Length
07 150 ft / 46 m 7,994 ft / 2,437 m 65.24° 71.96° Asphalt 0 ft / 0 m 200 ft / 61 m
25 150 ft / 46 m 7,994 ft / 2,437 m 245.25° 251.97° Asphalt 0 ft / 0 m 900 ft / 274 m

Approach Navaids

Runway Type Ident Frequency Range Bearing (true) Bearing (mag) Slope Elevation
07 Localiser IBQK 108.50 MHz 18 nm / 33 km 64.93° 71.66° - 26 ft / 8 m (AMSL)
07 Glidescope IBQK 108.50 MHz 10 nm / 19 km 65.25° 71.97° 3.00° 22 ft / 7 m (AMSL)

Map

Weather


0- 5 10 15 20 25 30 35+ Temperature / ° C

Clouds and Precipitation
Forecast for 2017-12-13 12:00 UTC. Updated 12 minutes ago

Ground ~20,000 ft ~40,000 ft Winds

METAR

KBQK 131135Z AUTO 30004KT 10SM CLR 03/M02 A3005 RMK AO2

TAF

Not found

Frequencies

Recorded 124.17 MHz AWOS 3
Clearance 126.75 MHz CLNC DEL
Unicom 122.80 MHz CTAF/UNICOM
Warning: Do not use this data for real-world aviation or navigation. No guarantee of current accuracy is given.